TAF EPSY 190830Z 1909/1918 11005KT 0800 FG OVC002 PROB40 TEMPO 1909/1912 0400 FG OVC001 TEMPO 1910/1918 2000 BR BKN005=